EET,Max TemperatureF,Mean TemperatureF,Min TemperatureF,Max Dew PointF,MeanDew PointF,Min DewpointF,Max Humidity, Mean Humidity, Min Humidity, Max Sea Level PressureIn, Mean Sea Level PressureIn, Min Sea Level PressureIn, Max VisibilityMiles, Mean VisibilityMiles, Min VisibilityMiles, Max Wind SpeedMPH, Mean Wind SpeedMPH, Max Gust SpeedMPH,PrecipitationIn, CloudCover, Events, WindDirDegrees
2012-10-1,75,57,39,37,28,23,56,36,15,30.45,30.40,30.36,6.2,6.2,6.2,9,3,,0.00,1,,23
2012-10-2,77,57,37,36,32,28,70,41,17,30.45,30.38,30.33,6.2,6.2,6.2,10,3,,0.00,2,,357
2012-10-3,77,60,42,45,37,32,72,50,24,30.33,30.28,30.21,6.2,6.2,6.2,21,3,39,0.00,4,,236
2012-10-4,75,58,42,45,43,37,93,66,25,30.24,30.15,30.09,6.2,6.2,6.2,15,5,,0.00,3,Rain-Thunderstorm,67
2012-10-5,62,52,41,46,43,39,100,76,45,30.24,30.15,30.12,6.2,6.2,6.2,16,6,,0.00,4,Rain-Thunderstorm,262
2012-10-6,66,52,37,45,40,36,100,70,34,30.33,30.29,30.24,6.2,6.2,6.2,12,3,,0.00,2,,40
2012-10-7,68,52,35,43,39,34,100,66,28,30.33,30.28,30.21,6.2,6.2,6.2,17,3,,0.00,4,,263
2012-10-8,66,52,39,43,41,37,100,68,35,30.24,30.12,30.01,6.2,6.2,6.2,25,7,33,0.00,5,Rain-Thunderstorm,189
2012-10-9,60,51,42,46,43,36,100,79,42,30.09,30.03,29.98,6.2,6.2,6.2,14,6,28,0.00,5,Rain-Thunderstorm,50
2012-10-10,59,50,41,46,43,41,100,85,51,30.18,30.13,30.09,6.2,6.2,6.2,17,4,,0.00,6,Rain-Thunderstorm,219
2012-10-11,59,50,42,48,45,41,100,84,59,30.21,30.13,30.01,6.2,5.7,0.2,17,3,,0.00,5,Fog-Rain-Thunderstorm,161
2012-10-12,55,48,39,45,39,30,93,72,50,30.24,30.11,30.01,6.2,6.2,6.2,20,7,,0.00,5,Thunderstorm,303
2012-10-13,59,46,32,41,32,28,93,66,33,30.30,30.28,30.24,6.2,6.2,6.2,7,2,,0.00,1,,290
2012-10-14,60,46,33,41,38,34,100,72,39,30.33,30.28,30.24,6.2,6.2,6.2,9,2,,0.00,3,,43
2012-10-15,62,47,32,39,35,30,100,70,30,30.36,30.33,30.30,6.2,6.2,6.2,8,1,,0.00,1,,48
2012-10-16,66,49,32,39,33,21,100,65,18,30.39,30.36,30.33,6.2,6.2,6.2,10,2,,0.00,1,,50
2012-10-17,64,48,32,36,32,25,93,59,24,30.39,30.34,30.30,6.2,6.2,6.2,9,1,,0.00,1,,59
2012-10-18,62,46,30,36,31,25,100,60,24,30.36,30.32,30.27,6.2,6.2,6.2,16,3,,0.00,2,,76
2012-10-19,59,44,30,37,34,30,100,68,42,30.36,30.33,30.30,6.2,6.2,6.2,12,3,,0.00,2,,49
2012-10-20,59,44,30,39,36,30,100,69,44,30.39,30.33,30.27,6.2,6.2,6.2,13,2,,0.00,3,,70
2012-10-21,55,47,39,39,38,36,100,73,54,30.33,30.31,30.27,6.2,6.2,6.2,6,1,,0.00,4,,219
2012-10-22,62,46,30,39,35,30,100,71,32,30.33,30.27,30.21,6.2,6.2,6.2,7,2,,0.00,3,,240
2012-10-23,59,44,30,41,37,30,100,74,51,30.21,30.15,30.12,6.2,6.2,6.2,7,4,,0.00,6,,295
2012-10-24,60,51,41,45,38,32,93,66,38,30.15,30.11,30.09,6.2,6.2,6.2,23,10,,0.00,5,Rain,236
2012-10-25,53,46,39,45,39,34,100,78,54,30.15,30.05,29.98,6.2,6.2,6.2,10,3,,0.00,5,Rain-Thunderstorm,244
2012-10-26,50,44,37,45,41,37,100,91,71,30.04,29.98,29.95,6.2,5.7,0.3,10,3,,0.00,5,Fog-Rain,244
2012-10-27,51,44,35,43,40,36,100,86,62,30.15,30.08,30.01,6.2,6.2,6.2,10,2,,0.00,5,Rain,208
2012-10-28,59,44,30,46,36,30,100,79,44,30.24,30.20,30.15,6.2,4.3,0.1,9,2,,0.00,2,Fog,241
2012-10-29,62,44,26,34,28,18,100,64,19,30.24,30.20,30.15,6.2,6.2,6.2,8,2,,0.00,1,,168
2012-10-30,62,46,30,37,32,27,93,65,34,30.18,30.14,30.09,6.2,6.2,6.2,8,2,,0.00,3,,340
2012-10-31,62,47,32,37,33,30,100,64,31,30.24,30.20,30.15,6.2,6.2,6.2,8,1,,0.00,4,,335